Time;durP1;ratioP1;P1;durP2;ratioP2;P2;SDS_P1;SDS_P2;PMS_P1;PMS_P2;Temp;Humidity;BMP_temperature;BMP_pressure;BME280_temperature;BME280_humidity;BME280_pressure;Samples;Min_cycle;Max_cycle;Signal;HPM_P1;HPM_P2
2021/11/25 00:00:25;;;;;;;112.00;39.30;;;;;;;4.69;100.00;101387.97;2611904;36;20042;-72
2021/11/25 00:02:56;;;;;;;114.72;38.35;;;;;;;4.67;100.00;101383.69;2611640;36;20322;-71
2021/11/25 00:05:24;;;;;;;117.20;38.28;;;;;;;4.69;100.00;101381.78;2611134;36;20122;-69
2021/11/25 00:07:53;;;;;;;111.13;37.15;;;;;;;4.69;100.00;101379.13;2611272;36;20034;-71
2021/11/25 00:10:22;;;;;;;127.93;40.80;;;;;;;4.69;100.00;101368.47;2611441;36;20166;-72
2021/11/25 00:12:52;;;;;;;107.68;36.22;;;;;;;4.70;100.00;101364.84;2611091;36;20197;-71
2021/11/25 00:15:20;;;;;;;121.32;41.25;;;;;;;4.80;100.00;101370.50;2612246;36;20521;-70
2021/11/25 00:17:49;;;;;;;118.57;39.55;;;;;;;4.71;100.00;101361.22;2611685;36;20039;-69
2021/11/25 00:20:20;;;;;;;120.90;40.35;;;;;;;4.75;100.00;101368.13;2612177;31;20489;-71
2021/11/25 00:22:49;;;;;;;123.45;40.25;;;;;;;4.71;100.00;101370.09;2612403;36;20415;-71
2021/11/25 00:25:17;;;;;;;113.27;38.20;;;;;;;4.70;100.00;101362.19;2612416;36;20046;-70
2021/11/25 00:27:46;;;;;;;124.78;41.03;;;;;;;4.69;100.00;101363.97;2611773;36;20080;-72
2021/11/25 00:30:14;;;;;;;121.05;38.35;;;;;;;4.69;100.00;101357.78;2612603;36;20035;-71
2021/11/25 00:32:45;;;;;;;117.82;38.78;;;;;;;4.70;100.00;101359.53;2611252;36;20053;-71
2021/11/25 00:35:15;;;;;;;129.55;42.72;;;;;;;4.67;100.00;101354.38;2612416;36;20069;-71
2021/11/25 00:37:46;;;;;;;138.57;43.03;;;;;;;4.67;100.00;101354.38;2612262;36;20638;-70
2021/11/25 00:40:17;;;;;;;126.18;39.90;;;;;;;4.68;100.00;101348.94;2612524;36;20126;-70
2021/11/25 00:42:47;;;;;;;123.82;41.47;;;;;;;4.68;100.00;101343.63;2611330;36;20118;-71
2021/11/25 00:45:17;;;;;;;132.93;41.85;;;;;;;4.71;100.00;101353.22;2612010;36;20050;-69
2021/11/25 00:47:46;;;;;;;128.80;42.13;;;;;;;4.74;100.00;101350.38;2611820;36;20039;-71
2021/11/25 00:50:18;;;;;;;134.63;42.95;;;;;;;4.73;100.00;101351.34;2612036;36;20038;-69
2021/11/25 00:52:49;;;;;;;129.20;44.45;;;;;;;4.73;100.00;101359.34;2612333;31;20062;-70
2021/11/25 00:55:18;;;;;;;121.57;42.08;;;;;;;4.71;100.00;101350.56;2612272;36;20466;-71
2021/11/25 00:57:46;;;;;;;137.57;45.93;;;;;;;4.69;100.00;101353.31;2611548;36;20120;-72
2021/11/25 01:00:18;;;;;;;118.70;41.10;;;;;;;4.73;100.00;101343.34;2611955;36;20341;-70
2021/11/25 01:02:47;;;;;;;135.38;42.42;;;;;;;4.72;100.00;101338.97;2611464;36;20065;-71
2021/11/25 01:05:17;;;;;;;118.10;41.95;;;;;;;4.75;100.00;101336.09;2611410;36;20069;-70
2021/11/25 01:07:49;;;;;;;119.63;41.58;;;;;;;4.80;100.00;101333.19;2612033;36;20053;-69
2021/11/25 01:10:21;;;;;;;107.65;38.83;;;;;;;4.80;100.00;101327.84;2611885;36;20080;-71
2021/11/25 01:12:50;;;;;;;118.03;40.78;;;;;;;4.74;100.00;101331.72;2611318;31;20519;-70
2021/11/25 01:15:20;;;;;;;117.25;40.80;;;;;;;4.76;100.00;101327.19;2612461;31;20031;-70
2021/11/25 01:17:51;;;;;;;115.60;39.72;;;;;;;4.79;100.00;101329.66;2611626;36;20138;-71
2021/11/25 01:20:20;;;;;;;108.57;40.00;;;;;;;4.71;100.00;101324.78;2612370;31;20132;-70
2021/11/25 01:22:51;;;;;;;103.28;41.33;;;;;;;4.69;100.00;101326.66;2611166;31;20038;-69
2021/11/25 01:25:19;;;;;;;108.43;38.88;;;;;;;4.69;100.00;101326.66;2611674;36;20030;-70
2021/11/25 01:27:47;;;;;;;101.60;40.05;;;;;;;4.66;100.00;101320.63;2612023;36;20142;-70
2021/11/25 01:30:16;;;;;;;113.90;41.28;;;;;;;4.70;100.00;101330.19;2611899;36;20121;-69
2021/11/25 01:32:44;;;;;;;103.57;41.37;;;;;;;4.67;100.00;101325.88;2611485;31;20085;-69
2021/11/25 01:35:13;;;;;;;103.90;41.35;;;;;;;4.66;100.00;101326.81;2612224;31;20042;-70
2021/11/25 01:37:42;;;;;;;100.70;40.25;;;;;;;4.67;100.00;101322.38;2612014;36;20118;-71
2021/11/25 01:40:15;;;;;;;92.10;38.30;;;;;;;4.68;100.00;101318.72;2611662;36;20030;-70
2021/11/25 01:42:44;;;;;;;93.03;38.17;;;;;;;4.66;100.00;101325.97;2609550;36;20169;-71
2021/11/25 01:45:23;;;;;;;88.97;36.03;;;;;;;4.79;100.00;101326.16;2629827;36;20129;-71
2021/11/25 01:47:52;;;;;;;90.32;37.60;;;;;;;4.72;100.00;101312.28;2611432;36;20035;-71
2021/11/25 01:50:23;;;;;;;84.50;36.72;;;;;;;4.68;100.00;101319.63;2611659;36;20557;-71
2021/11/25 01:52:51;;;;;;;90.03;38.17;;;;;;;4.66;100.00;101309.97;2611030;36;20922;-71
2021/11/25 01:55:24;;;;;;;86.30;36.67;;;;;;;4.61;100.00;101304.03;2611995;36;20050;-69
2021/11/25 01:57:53;;;;;;;78.68;35.08;;;;;;;4.61;100.00;101301.38;2611947;36;20090;-72
2021/11/25 02:00:25;;;;;;;82.65;35.28;;;;;;;4.67;100.00;101298.38;2611537;36;20063;-70
2021/11/25 02:02:55;;;;;;;80.90;35.42;;;;;;;4.63;100.00;101295.00;2611560;36;20061;-70
2021/11/25 02:05:23;;;;;;;79.53;35.47;;;;;;;4.62;100.00;101287.09;2611653;36;20610;-70
2021/11/25 02:07:51;;;;;;;72.00;34.03;;;;;;;4.62;100.00;101276.44;2612181;36;20459;-70
2021/11/25 02:10:22;;;;;;;78.85;35.75;;;;;;;4.57;100.00;101274.88;2611543;36;20118;-71
2021/11/25 02:12:51;;;;;;;76.32;35.13;;;;;;;4.61;100.00;101280.03;2609505;36;20065;-71
2021/11/25 02:15:21;;;;;;;80.55;35.40;;;;;;;4.59;100.00;101271.28;2612166;36;20274;-69
2021/11/25 02:17:50;;;;;;;76.32;35.47;;;;;;;4.57;100.00;101264.22;2612394;31;20578;-72
2021/11/25 02:20:18;;;;;;;84.75;36.80;;;;;;;4.56;100.00;101257.19;2611565;36;20042;-69
2021/11/25 02:25:27;;;;;;;72.38;34.47;;;;;;;4.53;100.00;101260.03;2612222;39;20486;-69
2021/11/25 02:27:57;;;;;;;78.45;35.10;;;;;;;4.55;100.00;101271.44;2611333;36;20944;-72
2021/11/25 02:30:26;;;;;;;74.53;36.00;;;;;;;4.57;100.00;101274.88;2611328;36;20126;-70
2021/11/25 02:32:55;;;;;;;75.10;34.85;;;;;;;4.61;100.00;101264.03;2610993;36;20054;-70
2021/11/25 02:35:26;;;;;;;79.80;35.72;;;;;;;4.57;100.00;101258.88;2612084;36;20054;-70
2021/11/25 02:37:57;;;;;;;76.78;34.53;;;;;;;4.55;100.00;101254.63;2612218;36;20034;-72
2021/11/25 02:40:32;;;;;;;75.70;36.20;;;;;;;4.52;100.00;101260.97;2612431;36;20183;-72
2021/11/25 02:43:02;;;;;;;74.15;35.15;;;;;;;4.48;100.00;101259.41;2612187;36;20050;-71
2021/11/25 02:45:32;;;;;;;77.47;35.65;;;;;;;4.50;100.00;101249.50;2613228;36;20529;-70
2021/11/25 02:50:41;;;;;;;69.22;32.78;;;;;;;4.58;100.00;101246.44;2612098;36;20149;-71
2021/11/25 02:53:10;;;;;;;71.80;33.83;;;;;;;4.57;100.00;101253.56;2612233;36;20170;-70
2021/11/25 02:55:41;;;;;;;67.93;32.83;;;;;;;4.60;100.00;101251.69;2612801;36;20625;-70
2021/11/25 02:58:09;;;;;;;69.75;34.88;;;;;;;4.63;100.00;101246.16;2611120;36;20061;-71
2021/11/25 03:00:41;;;;;;;70.85;33.67;;;;;;;4.56;100.00;101235.88;2612761;36;20072;-70
2021/11/25 03:03:12;;;;;;;70.43;34.47;;;;;;;4.54;100.00;101231.56;2611479;36;20566;-70
2021/11/25 03:05:42;;;;;;;72.82;33.63;;;;;;;4.56;100.00;101222.53;2611732;36;20544;-71
2021/11/25 03:08:12;;;;;;;69.93;33.63;;;;;;;4.51;100.00;101221.91;2612184;36;20051;-70
2021/11/25 03:10:46;;;;;;;70.45;34.20;;;;;;;4.55;100.00;101223.47;2612343;36;20069;-72
2021/11/25 03:16:12;;;;;;;67.70;35.13;;;;;;;4.53;100.00;101220.03;2612667;36;20030;-72
2021/11/25 03:18:42;;;;;;;71.75;34.80;;;;;;;4.50;100.00;101225.53;2611588;36;20065;-70
2021/11/25 03:21:10;;;;;;;79.10;37.97;;;;;;;4.55;100.00;101225.28;2611909;36;20053;-72
2021/11/25 03:23:41;;;;;;;84.60;39.25;;;;;;;4.49;100.00;101229.16;2612284;31;20089;-70
2021/11/25 03:26:16;;;;;;;75.95;37.85;;;;;;;4.52;100.00;101228.09;2611518;36;20046;-70
2021/11/25 03:28:54;;;;;;;81.05;38.63;;;;;;;4.44;100.00;101223.22;2612208;36;20476;-72
2021/11/25 03:31:25;;;;;;;87.55;39.03;;;;;;;4.43;100.00;101213.53;2612428;36;20034;-69
2021/11/25 03:33:54;;;;;;;78.70;37.25;;;;;;;4.53;100.00;101225.38;2611884;36;20558;-71
2021/11/25 03:36:23;;;;;;;86.75;40.72;;;;;;;4.46;100.00;101217.78;2630490;31;20528;-70
2021/11/25 03:38:52;;;;;;;87.20;40.67;;;;;;;4.42;100.00;101227.78;2612106;36;20578;-70
2021/11/25 03:41:24;;;;;;;87.55;39.97;;;;;;;4.44;100.00;101233.03;2612412;36;20118;-69
2021/11/25 03:43:56;;;;;;;91.18;42.88;;;;;;;4.49;100.00;101226.50;2611257;36;20073;-70
2021/11/25 03:46:29;;;;;;;87.30;38.72;;;;;;;4.47;100.00;101222.19;2611636;36;20046;-69
2021/11/25 03:49:01;;;;;;;83.20;40.65;;;;;;;4.48;100.00;101230.09;2611787;36;20037;-69
2021/11/25 03:51:29;;;;;;;90.70;39.03;;;;;;;4.54;100.00;101226.22;2612305;36;20038;-71
2021/11/25 03:54:01;;;;;;;85.67;39.10;;;;;;;4.53;100.00;101220.03;2630014;36;20077;-70
2021/11/25 03:56:33;;;;;;;84.70;38.30;;;;;;;4.63;100.00;101220.34;2630395;36;20039;-72
2021/11/25 03:59:05;;;;;;;96.03;41.72;;;;;;;4.54;100.00;101218.22;2612109;36;20238;-71
2021/11/25 04:01:37;;;;;;;87.80;40.97;;;;;;;4.69;100.00;101213.81;2629214;36;20055;-70
2021/11/25 04:04:10;;;;;;;88.43;40.58;;;;;;;4.57;100.00;101210.06;2626399;36;20038;-69
2021/11/25 04:07:00;;;;;;;89.88;39.55;;;;;;;4.49;100.00;101214.94;2611901;36;20082;-69
2021/11/25 04:15:34;;;;;;;;;;;;;;;;;;;;;
2021/11/25 04:22:28;;;;;;;91.85;41.75;;;;;;;4.50;100.00;101193.53;2628420;36;20126;-70
2021/11/25 04:43:04;;;;;;;101.68;45.13;;;;;;;4.37;100.00;101164.09;2610665;36;20654;-69
2021/11/25 04:46:11;;;;;;;108.15;44.58;;;;;;;4.30;100.00;101168.06;2612445;36;20034;-69
2021/11/25 04:49:22;;;;;;;111.28;43.80;;;;;;;4.30;100.00;101160.06;2629423;31;20035;-69
2021/11/25 04:52:10;;;;;;;;;;;;;;;;;;;;;
2021/11/25 04:55:09;;;;;;;;;;;;;;;;;;;;;
2021/11/25 05:27:01;;;;;;;109.63;47.55;;;;;;;4.00;100.00;101120.03;2615414;39;20435;-68
2021/11/25 05:29:44;;;;;;;116.30;46.75;;;;;;;4.06;100.00;101113.50;2611832;36;20060;-68
2021/11/25 05:32:37;;;;;;;102.75;44.35;;;;;;;3.97;100.00;101109.56;2647357;36;20034;-69
2021/11/25 05:35:11;;;;;;;114.35;46.10;;;;;;;3.99;100.00;101118.31;2629267;36;20037;-70
2021/11/25 05:38:02;;;;;;;104.05;46.15;;;;;;;4.06;100.00;101133.00;2628355;36;20161;-69
2021/11/25 05:40:43;;;;;;;104.75;45.42;;;;;;;4.01;100.00;101132.41;2646102;36;20460;-69
2021/11/25 05:43:22;;;;;;;103.60;45.22;;;;;;;4.01;100.00;101116.44;2628246;36;20177;-70
2021/11/25 05:46:04;;;;;;;102.95;46.95;;;;;;;3.87;100.00;101119.88;2629053;36;20038;-69
2021/11/25 05:48:38;;;;;;;103.75;45.50;;;;;;;3.78;100.00;101125.72;2629155;36;20042;-68
2021/11/25 05:53:47;;;;;;;93.88;44.28;;;;;;;3.75;100.00;101128.56;2610924;36;20054;-69
2021/11/25 06:02:02;;;;;;;104.43;45.35;;;;;;;3.59;100.00;101131.19;2626955;36;20031;-69
2021/11/25 06:04:39;;;;;;;100.10;45.30;;;;;;;3.60;100.00;101124.94;2628812;36;20035;-69
2021/11/25 06:07:17;;;;;;;103.93;44.38;;;;;;;3.56;100.00;101132.22;2609932;36;20558;-70
2021/11/25 06:10:13;;;;;;;104.93;48.08;;;;;;;3.55;100.00;101124.31;2628660;36;20061;-69
2021/11/25 06:13:03;;;;;;;110.05;45.38;;;;;;;3.60;100.00;101123.13;2646522;36;20041;-70
2021/11/25 06:16:01;;;;;;;;;;;;;;;;;;;;;
2021/11/25 06:18:54;;;;;;;112.90;47.53;;;;;;;3.63;100.00;101116.78;2642760;36;21820;-70
2021/11/25 06:21:36;;;;;;;116.70;49.10;;;;;;;3.67;100.00;101113.03;2627501;36;20423;-68
2021/11/25 06:24:07;;;;;;;116.82;49.53;;;;;;;3.67;100.00;101111.19;2611189;36;20606;-69
2021/11/25 06:26:49;;;;;;;125.65;52.63;;;;;;;3.67;100.00;101111.19;2629462;36;20034;-69
2021/11/25 07:04:25;;;;;;;103.35;45.28;;;;;;;3.73;100.00;101094.03;2610656;36;20148;-68
2021/11/25 07:06:56;;;;;;;108.05;48.28;;;;;;;3.68;100.00;101093.41;2609985;36;20030;-68
2021/11/25 07:09:24;;;;;;;111.93;49.38;;;;;;;3.69;100.00;101097.81;2611395;36;20034;-69
2021/11/25 07:12:06;;;;;;;115.15;48.38;;;;;;;3.70;100.00;101104.00;2611605;36;20030;-69
2021/11/25 07:14:34;;;;;;;112.38;47.97;;;;;;;3.74;100.00;101100.22;2611324;36;20041;-69
2021/11/25 07:17:02;;;;;;;106.63;45.08;;;;;;;3.76;100.00;101101.84;2611379;36;20090;-69
2021/11/25 07:19:43;;;;;;;113.78;48.00;;;;;;;3.78;100.00;101099.09;2611764;36;20438;-68
2021/11/25 07:22:21;;;;;;;107.50;48.60;;;;;;;3.80;100.00;101098.06;2611545;36;20061;-69
2021/11/25 07:24:49;;;;;;;116.80;48.35;;;;;;;3.78;100.00;101097.28;2612508;36;20034;-68
2021/11/25 07:27:18;;;;;;;110.82;48.05;;;;;;;3.80;100.00;101091.91;2612146;36;20118;-69
2021/11/25 07:30:08;;;;;;;114.65;49.20;;;;;;;3.93;100.00;101092.91;2611921;36;20153;-69
2021/11/25 07:35:03;;;;;;;110.57;48.65;;;;;;;3.90;100.00;101102.88;2614640;46;20154;-69
2021/11/25 07:37:34;;;;;;;108.90;48.20;;;;;;;3.96;100.00;101102.50;2612241;36;20531;-68
2021/11/25 07:40:26;;;;;;;104.57;46.55;;;;;;;3.96;100.00;101098.06;2606653;31;20502;-68
2021/11/25 07:42:55;;;;;;;115.57;48.13;;;;;;;3.98;100.00;101103.31;2630460;36;20042;-68
2021/11/25 07:45:37;;;;;;;;;;;;;;;;;;;;;
2021/11/25 07:51:14;;;;;;;108.20;48.42;;;;;;;4.14;100.00;101112.13;2607900;36;20112;-70
2021/11/25 07:53:47;;;;;;;103.65;47.10;;;;;;;4.15;100.00;101105.84;2611603;36;20157;-69
2021/11/25 07:56:16;;;;;;;103.82;45.38;;;;;;;4.22;100.00;101106.34;2610921;31;20034;-69
2021/11/25 07:58:45;;;;;;;106.90;47.78;;;;;;;4.17;100.00;101103.94;2612285;36;20030;-69
2021/11/25 08:01:14;;;;;;;95.72;44.47;;;;;;;4.21;100.00;101108.16;2610974;36;20076;-70
2021/11/25 08:03:43;;;;;;;102.90;46.05;;;;;;;4.23;100.00;101109.88;2610836;31;20039;-69
2021/11/25 08:06:11;;;;;;;100.53;44.17;;;;;;;4.37;100.00;101099.25;2611406;36;20061;-71
2021/11/25 08:08:42;;;;;;;95.45;44.35;;;;;;;4.32;100.00;101107.53;2611738;36;20061;-69
2021/11/25 08:11:14;;;;;;;100.20;46.58;;;;;;;4.29;100.00;101113.03;2616313;36;20071;-70
2021/11/25 08:13:45;;;;;;;97.70;45.75;;;;;;;4.28;100.00;101113.97;2611529;36;20049;-70
2021/11/25 08:16:16;;;;;;;110.95;48.05;;;;;;;4.27;100.00;101116.72;2611392;36;20062;-70
2021/11/25 08:18:47;;;;;;;113.75;49.17;;;;;;;4.34;100.00;101112.75;2611983;36;20030;-71
2021/11/25 08:26:41;;;;;;;115.13;51.00;;;;;;;4.69;100.00;101112.50;2615777;31;20035;-70
2021/11/25 08:29:11;;;;;;;109.63;49.22;;;;;;;4.54;100.00;101120.44;2611691;36;20031;-70
2021/11/25 08:39:47;;;;;;;111.18;48.83;;;;;;;4.69;100.00;101117.81;2612834;36;20167;-71
2021/11/25 08:42:20;;;;;;;107.70;48.97;;;;;;;4.69;100.00;101117.81;2612260;31;20756;-70
2021/11/25 08:44:49;;;;;;;108.53;48.70;;;;;;;4.60;100.00;101118.38;2612955;31;20038;-70
2021/11/25 08:47:17;;;;;;;110.67;48.90;;;;;;;4.59;100.00;101111.31;2612612;36;20034;-70
2021/11/25 08:49:48;;;;;;;117.43;50.00;;;;;;;4.65;100.00;101110.94;2604392;36;20295;-71
2021/11/25 08:52:19;;;;;;;130.38;52.78;;;;;;;4.63;100.00;101113.72;2613767;31;20572;-70
2021/11/25 08:54:47;;;;;;;126.18;53.10;;;;;;;4.61;100.00;101098.75;2614292;36;20651;-70
2021/11/25 08:57:19;;;;;;;122.97;52.27;;;;;;;4.64;100.00;101098.56;2614191;36;20042;-70
2021/11/25 08:59:48;;;;;;;122.72;52.30;;;;;;;4.61;100.00;101094.28;2613630;31;20322;-70
2021/11/25 09:02:16;;;;;;;138.10;53.90;;;;;;;4.69;100.00;101086.69;2613969;36;20034;-71
2021/11/25 09:04:48;;;;;;;135.68;54.05;;;;;;;4.74;100.00;101089.94;2613133;36;20101;-70
2021/11/25 09:07:16;;;;;;;134.00;53.60;;;;;;;4.80;100.00;101078.03;2612164;36;20094;-71
2021/11/25 09:10:11;;;;;;;139.20;55.37;;;;;;;4.74;100.00;101089.06;2611180;36;20042;-71
2021/11/25 09:12:43;;;;;;;127.03;53.22;;;;;;;4.77;100.00;101088.91;2612948;31;20042;-71
2021/11/25 09:17:53;;;;;;;139.57;55.30;;;;;;;4.86;100.00;101088.34;2611595;36;20081;-71
2021/11/25 09:20:22;;;;;;;132.82;56.10;;;;;;;4.91;100.00;101096.91;2612490;36;20030;-71
2021/11/25 09:22:56;;;;;;;132.27;53.47;;;;;;;5.03;100.00;101110.44;2612222;36;20494;-70
2021/11/25 09:25:25;;;;;;;139.25;55.35;;;;;;;5.08;100.00;101108.38;2612143;36;20855;-71
2021/11/25 09:27:56;;;;;;;136.70;54.90;;;;;;;5.01;100.00;101113.22;2603986;36;20034;-70
2021/11/25 09:30:25;;;;;;;134.27;55.30;;;;;;;4.95;100.00;101118.03;2612327;36;20053;-71
2021/11/25 09:32:53;;;;;;;138.67;53.73;;;;;;;5.04;100.00;101120.16;2599242;36;20057;-71
2021/11/25 09:35:23;;;;;;;132.75;52.63;;;;;;;5.11;100.00;101121.50;2612368;31;20031;-70
2021/11/25 09:37:51;;;;;;;;;;;;;;;5.06;100.00;101120.91;2605338;36;20538;-70
2021/11/25 09:40:26;;;;;;;122.60;50.03;;;;;;;5.10;100.00;101122.47;2612162;31;19946;-70
2021/11/25 09:42:59;;;;;;;134.88;55.70;;;;;;;5.07;100.00;101115.50;2611037;36;20061;-70
2021/11/25 09:45:29;;;;;;;132.73;52.58;;;;;;;5.15;100.00;101115.00;2610216;36;20045;-71
2021/11/25 09:48:02;;;;;;;130.18;53.53;;;;;;;5.17;100.00;101117.63;2610768;36;20289;-70
2021/11/25 09:50:33;;;;;;;117.22;50.35;;;;;;;5.34;100.00;101121.88;2611324;36;20571;-71
2021/11/25 09:53:04;;;;;;;119.63;50.78;;;;;;;5.37;100.00;101122.53;2610205;36;20061;-71
2021/11/25 09:55:34;;;;;;;123.25;53.88;;;;;;;5.36;100.00;101111.97;2612081;36;20061;-71
2021/11/25 09:58:11;;;;;;;129.13;55.42;;;;;;;5.40;100.00;101116.16;2612085;36;20424;-70
2021/11/25 10:00:42;;;;;;;124.75;51.53;;;;;;;5.46;100.00;101106.91;2611917;36;20122;-71
2021/11/25 10:03:16;;;;;;;133.43;54.83;;;;;;;5.49;100.00;101112.06;2611279;36;20038;-69
2021/11/25 10:05:49;;;;;;;129.48;52.13;;;;;;;5.51;100.00;101105.66;2610724;36;20031;-69
2021/11/25 10:08:35;;;;;;;128.43;52.28;;;;;;;5.55;100.00;101101.84;2611939;36;20034;-70
2021/11/25 10:14:02;;;;;;;143.07;57.88;;;;;;;5.79;100.00;101103.91;2612200;36;20450;-71
2021/11/25 10:16:33;;;;;;;130.57;52.08;;;;;;;6.00;100.00;101117.72;2611900;36;20107;-71
2021/11/25 10:19:12;;;;;;;128.25;54.58;;;;;;;6.00;100.00;101112.34;2611292;36;20558;-70
2021/11/25 10:21:43;;;;;;;;;;;;;;;5.98;100.00;101111.63;2611946;36;20041;-70
2021/11/25 10:24:12;;;;;;;115.57;49.90;;;;;;;6.10;100.00;101110.81;2612134;36;20565;-70
2021/11/25 10:26:40;;;;;;;112.75;50.03;;;;;;;6.10;100.00;101112.63;2630341;36;20506;-71
2021/11/25 10:29:12;;;;;;;113.53;50.03;;;;;;;6.21;100.00;101110.06;2611434;36;20069;-70
2021/11/25 10:31:43;;;;;;;113.07;48.42;;;;;;;6.45;100.00;101109.44;2612509;36;20038;-71
2021/11/25 10:40:09;;;;;;;98.40;45.10;;;;;;;6.94;100.00;101106.06;2609117;36;20957;-71
2021/11/25 10:42:42;;;;;;;96.82;44.00;;;;;;;7.01;100.00;101099.31;2610584;36;20053;-71
2021/11/25 10:45:16;;;;;;;96.30;45.15;;;;;;;6.92;100.00;101099.97;2609644;36;20041;-71
2021/11/25 10:47:46;;;;;;;91.80;41.67;;;;;;;6.75;100.00;101098.44;2608648;36;20434;-70
2021/11/25 10:50:16;;;;;;;86.10;42.15;;;;;;;6.90;100.00;101101.03;2611228;36;20038;-70
2021/11/25 10:52:48;;;;;;;85.63;39.67;;;;;;;6.99;100.00;101101.25;2610755;36;20038;-71
2021/11/25 10:55:24;;;;;;;92.45;41.25;;;;;;;7.18;100.00;101094.59;2612138;36;21176;-70
2021/11/25 10:57:54;;;;;;;79.05;37.45;;;;;;;7.24;100.00;101093.31;2609985;36;20824;-71
2021/11/25 11:00:27;;;;;;;83.20;36.53;;;;;;;7.27;100.00;101098.44;2612175;36;20563;-71
2021/11/25 11:03:10;;;;;;;73.53;35.40;;;;;;;7.29;100.00;101097.38;2612142;36;20031;-71
2021/11/25 11:05:49;;;;;;;78.40;37.15;;;;;;;7.45;100.00;101101.63;2612294;36;20038;-70
2021/11/25 11:08:19;;;;;;;78.15;36.60;;;;;;;7.46;100.00;101106.88;2612527;36;20038;-70
2021/11/25 11:10:55;;;;;;;74.38;34.30;;;;;;;7.48;100.00;101106.75;2612697;31;20046;-70
2021/11/25 11:13:35;;;;;;;65.15;31.55;;;;;;;7.64;100.00;101112.75;2611863;36;20037;-69
2021/11/25 11:18:57;;;;;;;58.30;28.48;;;;;;;7.68;100.00;101103.50;2606478;36;20077;-71
2021/11/25 11:21:34;;;;;;;56.65;27.63;;;;;;;7.76;100.00;101099.41;2610317;36;20054;-69
2021/11/25 11:24:05;;;;;;;59.42;29.38;;;;;;;7.72;100.00;101105.00;2611426;36;20559;-69
2021/11/25 11:26:34;;;;;;;54.95;27.58;;;;;;;7.79;100.00;101104.53;2612067;36;20419;-70
2021/11/25 11:29:03;;;;;;;67.45;27.83;;;;;;;7.76;100.00;101099.41;2611253;36;20475;-69
2021/11/25 11:31:35;;;;;;;59.97;27.50;;;;;;;7.88;100.00;101098.53;2611785;36;20045;-69
2021/11/25 11:34:05;;;;;;;46.63;24.63;;;;;;;8.01;100.00;101093.97;2611976;36;20518;-69
2021/11/25 11:36:34;;;;;;;;;;;;;;;8.17;100.00;101092.81;2611194;36;20038;-69
2021/11/25 11:39:05;;;;;;;48.80;21.38;;;;;;;8.21;100.00;101078.22;2611659;36;20298;-70
2021/11/25 11:41:34;;;;;;;39.33;17.88;;;;;;;8.13;100.00;101080.63;2612201;36;20053;-70
2021/11/25 11:44:19;;;;;;;31.98;16.08;;;;;;;8.24;100.00;101072.63;2613624;36;20042;-70
2021/11/25 11:46:52;;;;;;;18.67;8.23;;;;;;;8.09;100.00;101071.94;2612826;31;20393;-70
2021/11/25 11:49:23;;;;;;;15.93;6.05;;;;;;;8.24;100.00;101064.56;2611540;36;20043;-70
2021/11/25 11:52:11;;;;;;;11.00;3.30;;;;;;;8.37;100.00;101067.19;2612129;31;20857;-70
2021/11/25 11:54:51;;;;;;;10.70;2.00;;;;;;;8.35;100.00;101063.78;2610953;36;20118;-69
2021/11/25 11:57:49;;;;;;;7.80;1.60;;;;;;;8.42;100.00;101063.19;2611846;36;20075;-70
2021/11/25 12:00:44;;;;;;;11.32;1.83;;;;;;;8.46;100.00;101060.28;2610308;31;20057;-70
2021/11/25 12:03:31;;;;;;;8.50;1.63;;;;;;;8.65;100.00;101049.84;2609671;36;20031;-72
2021/11/25 12:06:00;;;;;;;7.53;1.60;;;;;;;8.66;100.00;101035.47;2609256;36;20038;-70
2021/11/25 12:08:44;;;;;;;6.13;1.33;;;;;;;8.70;100.00;101041.44;2611762;36;20585;-71
2021/11/25 12:11:22;;;;;;;7.72;1.83;;;;;;;8.59;100.00;101043.13;2612102;36;20038;-70
2021/11/25 12:14:04;;;;;;;5.97;1.48;;;;;;;8.60;100.00;101035.94;2611478;36;20038;-70
2021/11/25 12:16:41;;;;;;;6.05;1.52;;;;;;;8.59;100.00;101036.91;2611967;36;21080;-70
2021/11/25 12:19:14;;;;;;;6.82;1.60;;;;;;;8.67;100.00;101031.81;2612333;36;20035;-71
2021/11/25 12:21:49;;;;;;;7.03;1.67;;;;;;;8.55;100.00;101030.06;2611022;36;20930;-71
2021/11/25 12:24:50;;;;;;;6.32;1.70;;;;;;;8.47;100.00;101029.81;2611212;36;20042;-70
2021/11/25 12:27:22;;;;;;;8.05;2.05;;;;;;;8.32;100.00;101027.31;2612169;36;20035;-69
2021/11/25 12:30:17;;;;;;;10.23;1.92;;;;;;;8.19;100.00;101018.50;2611653;36;20062;-70
2021/11/25 12:33:10;;;;;;;7.07;1.52;;;;;;;8.02;100.00;101022.44;2599568;36;20431;-69
2021/11/25 12:36:07;;;;;;;7.28;1.90;;;;;;;7.96;100.00;101018.38;2612368;31;20638;-69
2021/11/25 12:38:42;;;;;;;9.00;2.80;;;;;;;8.01;100.00;101018.91;2611622;36;20068;-70
2021/11/25 12:41:11;;;;;;;9.48;1.73;;;;;;;8.06;100.00;101013.19;2610964;36;20185;-69
2021/11/25 12:43:43;;;;;;;6.13;1.70;;;;;;;8.09;100.00;101010.28;2612044;36;20052;-73
2021/11/25 12:46:14;;;;;;;8.50;1.90;;;;;;;8.11;100.00;101004.81;2610018;36;20161;-71
2021/11/25 12:54:21;;;;;;;7.82;1.92;;;;;;;8.49;100.00;100999.19;2609571;36;20034;-69
2021/11/25 12:57:20;;;;;;;11.00;1.80;;;;;;;8.36;100.00;101003.78;2611040;36;20038;-69
2021/11/25 12:59:49;;;;;;;8.27;1.52;;;;;;;8.30;100.00;101002.41;2611603;36;20056;-71
2021/11/25 13:05:32;;;;;;;9.43;1.73;;;;;;;7.99;100.00;100999.41;2611593;31;20049;-72
2021/11/25 13:08:03;;;;;;;9.75;1.60;;;;;;;7.91;100.00;101007.19;2610889;36;20030;-72
2021/11/25 13:10:45;;;;;;;8.65;1.67;;;;;;;7.72;100.00;101008.53;2629201;31;20551;-71
2021/11/25 13:19:08;;;;;;;6.38;1.95;;;;;;;7.63;100.00;100993.16;2612821;47;20057;-70
2021/11/25 13:30:43;;;;;;;6.32;1.50;;;;;;;7.57;100.00;100992.75;2610901;36;20030;-71
2021/11/25 13:42:32;;;;;;;5.78;2.00;;;;;;;7.60;100.00;100971.97;2609057;36;20031;-71
2021/11/25 13:45:35;;;;;;;6.63;1.42;;;;;;;7.79;100.00;100986.63;2609154;47;20030;-71
2021/11/25 13:48:14;;;;;;;8.60;1.65;;;;;;;7.96;100.00;100998.78;2610472;36;20475;-72
2021/11/25 13:56:10;;;;;;;5.30;1.15;;;;;;;7.52;100.00;101003.81;2610657;36;20034;-71
2021/11/25 13:58:38;;;;;;;6.57;1.20;;;;;;;7.40;100.00;100991.31;2628857;36;20034;-70
2021/11/25 14:01:11;;;;;;;3.50;1.00;;;;;;;7.22;100.00;100983.66;2611757;36;20142;-70
2021/11/25 14:07:14;;;;;;;6.47;1.85;;;;;;;7.06;100.00;100988.41;2627463;36;20038;-70
2021/11/25 14:09:45;;;;;;;5.40;1.38;;;;;;;6.97;100.00;100980.06;2611264;36;20038;-71
2021/11/25 14:12:19;;;;;;;7.65;1.70;;;;;;;6.88;100.00;100990.59;2611758;36;20575;-69
2021/11/25 14:14:50;;;;;;;11.35;1.80;;;;;;;6.74;100.00;100980.84;2611921;36;20030;-69
2021/11/25 14:17:23;;;;;;;5.25;1.63;;;;;;;6.75;100.00;100990.59;2610791;36;20082;-70
2021/11/25 14:19:55;;;;;;;7.85;1.60;;;;;;;6.64;100.00;100978.84;2610595;36;20045;-70
2021/11/25 14:31:08;;;;;;;4.88;1.40;;;;;;;6.42;100.00;100973.25;2611688;36;20034;-70
2021/11/25 14:33:47;;;;;;;7.60;1.40;;;;;;;6.52;100.00;100984.19;2610965;36;20041;-69
2021/11/25 14:36:21;;;;;;;6.57;1.55;;;;;;;6.61;100.00;100981.72;2611305;36;20122;-70
2021/11/25 14:38:49;;;;;;;5.70;1.73;;;;;;;6.57;100.00;100974.88;2611956;36;20041;-70
2021/11/25 14:41:27;;;;;;;10.27;1.80;;;;;;;6.54;100.00;100977.75;2611996;36;20038;-70
2021/11/25 14:44:04;;;;;;;9.63;1.50;;;;;;;6.51;100.00;100977.97;2611767;36;20035;-70
2021/11/25 14:46:34;;;;;;;7.70;1.92;;;;;;;6.42;100.00;100973.25;2611436;36;20559;-71
2021/11/25 14:49:05;;;;;;;8.30;1.38;;;;;;;6.36;100.00;100979.03;2611778;36;20030;-69
2021/11/25 14:51:34;;;;;;;10.93;2.08;;;;;;;6.28;100.00;100993.78;2610870;36;20077;-71
2021/11/25 14:54:02;;;;;;;6.33;1.60;;;;;;;6.29;100.00;100983.97;2611635;36;20034;-70
2021/11/25 14:56:37;;;;;;;8.27;2.08;;;;;;;6.23;100.00;100989.72;2611555;36;20895;-70
2021/11/25 14:59:14;;;;;;;12.25;1.45;;;;;;;6.22;100.00;100983.50;2610108;36;20031;-70